Cape Texel — V7RC4 — position and weather

sailwx.info

Track history (hours):
 
Tides and Currents Weather Stations Pressure Air Temp Water Temp Dewpoint Dewpoint Depression Visibility Wind Speed Wind Dir Waves Ship Positions

Cape Texel

Last reported at 2016-Apr-30 04:24 UTC. Time now 2016-May-05 08:34 UTC.
Position N 28°09' W 092°50'.

Length 228 m; draft 8.8 m.

Type: Ship (hazmat cat A). MMSI: 538090383.

Date/timePositionNaut miles runAvg speedWind from/ knotsBaromVisibWave heightAir tempDewpointWater temp
2016-Apr-30 04:24N 28°09' W 092°50'1011.7
2016-Apr-30 03:33N 28°16' W 092°58'3511.7
2016-Apr-30 00:33N 28°37' W 093°30'1211.8
2016-Apr-29 23:30N 28°44' W 093°41'51 3.2
2016-Apr-29 07:32N 29°10' W 094°32'0 0.0
2016-Apr-29 02:05N 29°10' W 094°32'0 0.0
2016-Apr-29 00:32N 29°10' W 094°32'0 0.0
2016-Apr-27 19:32N 29°10' W 094°32'0 0.0
2016-Apr-27 18:29N 29°10' W 094°32'0 0.1
2016-Apr-27 17:32N 29°10' W 094°32'0 0.0
2016-Apr-27 16:29N 29°10' W 094°32'0 0.0
2016-Apr-27 15:23N 29°10' W 094°32'16 0.9
2016-Apr-26 22:16N 29°21' W 094°44'1 2.0
2016-Apr-26 21:32N 29°21' W 094°46'1010.2
2016-Apr-26 20:33N 29°29' W 094°52'1211.7
2016-Apr-26 19:33N 29°39' W 094°58'8 8.3
2016-Apr-26 18:33N 29°46' W 095°05'3 0.1
2016-Apr-25 08:33N 29°44' W 095°02'8 8.4
2016-Apr-25 07:33N 29°37' W 094°57'1110.9
2016-Apr-25 06:33N 29°27' W 094°51'18 0.4
2016-Apr-23 13:28N 29°17' W 094°34'0 0.0
2016-Apr-23 12:31N 29°17' W 094°34'0 0.0
2016-Apr-23 11:25N 29°17' W 094°34'0 0.0
2016-Apr-23 10:31N 29°17' W 094°34'  
Track history (hours):
 
Tides and Currents Weather Stations Pressure Air Temp Water Temp Dewpoint Dewpoint Depression Visibility Wind Speed Wind Dir Waves Ship Positions

Cape Texel

Last reported at 2016-Apr-30 04:24 UTC. Time now 2016-May-05 08:34 UTC.
Position N 28°09' W 092°50'.

Length 228 m; draft 8.8 m.

Type: Ship (hazmat cat A). MMSI: 538090383.

Date/timePositionNaut miles runAvg speedWind from/ knotsBaromVisibWave heightAir tempDewpointWater temp
2016-Apr-30 04:24N 28°09' W 092°50'1011.7
2016-Apr-30 03:33N 28°16' W 092°58'3511.7
2016-Apr-30 00:33N 28°37' W 093°30'1211.8
2016-Apr-29 23:30N 28°44' W 093°41'51 3.2
2016-Apr-29 07:32N 29°10' W 094°32'0 0.0
2016-Apr-29 02:05N 29°10' W 094°32'0 0.0
2016-Apr-29 00:32N 29°10' W 094°32'0 0.0
2016-Apr-27 19:32N 29°10' W 094°32'0 0.0
2016-Apr-27 18:29N 29°10' W 094°32'0 0.1
2016-Apr-27 17:32N 29°10' W 094°32'0 0.0
2016-Apr-27 16:29N 29°10' W 094°32'0 0.0
2016-Apr-27 15:23N 29°10' W 094°32'16 0.9
2016-Apr-26 22:16N 29°21' W 094°44'1 2.0
2016-Apr-26 21:32N 29°21' W 094°46'1010.2
2016-Apr-26 20:33N 29°29' W 094°52'1211.7
2016-Apr-26 19:33N 29°39' W 094°58'8 8.3
2016-Apr-26 18:33N 29°46' W 095°05'3 0.1
2016-Apr-25 08:33N 29°44' W 095°02'8 8.4
2016-Apr-25 07:33N 29°37' W 094°57'1110.9
2016-Apr-25 06:33N 29°27' W 094°51'18 0.4
2016-Apr-23 13:28N 29°17' W 094°34'0 0.0
2016-Apr-23 12:31N 29°17' W 094°34'0 0.0
2016-Apr-23 11:25N 29°17' W 094°34'0 0.0
2016-Apr-23 10:31N 29°17' W 094°34'  

Dump ship's entire track history